Manhattan Regional Airport
KMHK : rendu visible

Aérodrome :











RETROUVEZ-NOUS SUR...

 
LOGIN :

S'inscrire | Disclaimer

   EN    FR    IT 

 









Légende :    VFR   VFR Marginal   IFR   IFR Intensif   IFR Très Intensif
Visi : 
Plafond : 
>= 8 km
>= 3000ft
5 à 8 km
1000 à 3000 ft
1500m à 5 km
500 à 1000 ft
800 à 1500m
200 à 500 ft
< 800m
< 200 ft
Symboles :   Orages  Brouillard  Fortes neiges  Fortes précipitations  Vent > 20 kt






- Altitude de l'aérodrome : 1057 ft
- Code IATA : MHK


KMHK - Manhattan Regional

DERNIER METAR :
  • 210052Z 04008KT 10SM CLR M08/M13 A3062 RMK AO2 SLP391 T10831133

METARs EXPIRÉS :
  • 202352Z 04009KT 10SM CLR M07/M13 A3061 RMK AO2 SLP386 T10671133 11033 21067 53007
  • 202252Z 04009KT 10SM CLR M05/M13 A3060 RMK AO2 SLP381 T10501133

TAF KMHK
Valide du 21 à 00h jusqu'au 22 à 00h UTC


202327Z 2100/2124 02006KT P6SM SKC
FM211400 16009KT P6SM BKN250



MET'MAP, la Météo Aéronautique d'un coup d'oeil ! - Copyright ORBIFLY Décembre 2007 - Disclaimer

ORBIFLY MET'MAP TEAM :

Programmation & Développement : Alexandra Zaïnal
Sur une idée originale de : Baudouin d'Aumeries
Assistance à la programmation : Marc-Olivier Méhu
Soutien technique & logistique : Manuel Goepfert

Contact : metmap@orbifly.com




SOURCES & CREDITS :

   NOAA       Earth
Advisory